ADDS METAR Data INFO
IDs: Format: Raw Decoded Include TAF

Data at: 1623 UTC 23 Feb 2018

KDHN 231553Z 18009KT 10SM CLR 25/17 A3041 RMK AO2 SLP293 T02500172